Indianola, Washington
Current Conditions -  °F | °C
As of 3:53 PM on Friday 24 Oct 2014 (Local Time) from KPAE Reporting Station
Clear Clear  
Wind Chill: 54°   Ceiling: Unl
Heat Index: 54°   Visibility: 10mi
Dew Point: 45°   Wind: 5mph
Humidity: 72%   Direction: 350°N
Pressure: 29.95"   Gusts: NA
Location:  47.75°N, 122.53°W
Report Text: KPAE 242253Z 35004KT 10SM CLR 12/07 A2995 RMK AO2 SLP143 T01220072
Loading
Personal Weather Stations






























Interactive Weather Map
Tropical Storm Tracking
New forecast layout! Learn more

10-Day Weather Forecast

Advertisements
Track Severe Weather on mobile